Time;durP1;ratioP1;P1;durP2;ratioP2;P2;SDS_P1;SDS_P2;PMS_P1;PMS_P2;Temp;Humidity;BMP_temperature;BMP_pressure;BME280_temperature;BME280_humidity;BME280_pressure;Samples;Min_cycle;Max_cycle;Signal;HPM_P1;HPM_P2
2024/01/26 00:02:09;;;;;;;14.60;13.20;;;;;;;20.18;39.33;101978.50;5027516;28;20056;-58
2024/01/26 00:04:36;;;;;;;16.17;14.15;;;;;;;20.18;39.17;101983.88;5023326;28;20068;-58
2024/01/26 00:07:05;;;;;;;14.55;13.05;;;;;;;20.17;39.33;101992.91;5030301;28;20427;-58
2024/01/26 00:09:33;;;;;;;14.60;13.10;;;;;;;20.16;39.22;102004.63;5027595;28;20049;-58
2024/01/26 00:12:00;;;;;;;15.73;14.13;;;;;;;20.16;39.11;101995.69;5022461;28;20052;-58
2024/01/26 00:14:28;;;;;;;15.20;13.75;;;;;;;20.15;39.15;101991.31;5031353;28;20061;-58
2024/01/26 00:16:55;;;;;;;14.75;13.32;;;;;;;20.14;39.15;101998.50;5024988;28;20045;-58
2024/01/26 00:19:22;;;;;;;14.32;12.85;;;;;;;20.14;38.96;101987.75;5023347;28;20384;-58
2024/01/26 00:21:50;;;;;;;14.85;13.32;;;;;;;20.12;38.97;101995.06;5032449;28;20053;-58
2024/01/26 00:24:17;;;;;;;15.50;13.98;;;;;;;20.12;39.07;101995.06;5022677;28;20057;-58
2024/01/26 00:26:49;;;;;;;14.80;13.40;;;;;;;20.11;38.87;101997.88;5027594;28;20090;-58
2024/01/26 00:29:16;;;;;;;16.05;14.40;;;;;;;20.11;38.86;101992.50;5028755;28;20049;-58
2024/01/26 00:31:44;;;;;;;15.55;14.02;;;;;;;20.11;38.88;101995.19;5020743;28;20050;-58
2024/01/26 00:34:12;;;;;;;15.40;13.90;;;;;;;20.09;38.89;101989.88;5029590;28;20056;-58
2024/01/26 00:36:40;;;;;;;15.30;13.70;;;;;;;20.08;38.83;101985.50;5024760;28;20499;-58
2024/01/26 00:39:07;;;;;;;13.90;12.55;;;;;;;20.07;38.80;101981.09;5022464;28;20401;-58
2024/01/26 00:41:35;;;;;;;15.60;14.00;;;;;;;20.07;38.65;101982.91;5017180;28;20052;-58
2024/01/26 00:44:02;;;;;;;15.27;13.73;;;;;;;20.06;38.67;101990.13;5030115;28;20403;-58
2024/01/26 00:46:30;;;;;;;13.88;12.57;;;;;;;20.06;38.54;101990.13;5011966;28;20465;-58
2024/01/26 00:48:57;;;;;;;14.30;12.85;;;;;;;20.06;38.67;101981.22;5011225;28;20046;-58
2024/01/26 00:51:24;;;;;;;14.95;13.52;;;;;;;20.04;38.62;101989.38;5026647;28;20056;-58
2024/01/26 00:53:52;;;;;;;15.18;13.68;;;;;;;20.04;38.63;101997.44;5022055;28;20057;-58
2024/01/26 00:56:20;;;;;;;14.77;13.32;;;;;;;20.02;38.50;102002.06;5026688;28;20049;-58
2024/01/26 00:58:48;;;;;;;14.40;13.00;;;;;;;20.03;38.44;101997.53;5028371;28;20056;-58
2024/01/26 01:01:15;;;;;;;15.20;13.70;;;;;;;20.02;38.43;101982.41;5016360;28;20388;-58
2024/01/26 01:03:43;;;;;;;15.32;13.82;;;;;;;20.00;38.52;101990.53;5030395;28;20045;-58
2024/01/26 01:06:11;;;;;;;15.35;13.85;;;;;;;19.99;38.50;101994.22;5024191;28;20048;-58
2024/01/26 01:08:38;;;;;;;15.32;13.82;;;;;;;19.99;38.34;101997.75;5028160;28;20056;-58
2024/01/26 01:11:06;;;;;;;14.93;13.40;;;;;;;19.99;38.44;101994.22;5026948;28;20061;-58
2024/01/26 01:13:33;;;;;;;14.93;13.32;;;;;;;19.98;38.38;101997.88;5025309;28;20042;-58
2024/01/26 01:16:01;;;;;;;14.15;12.80;;;;;;;19.98;38.30;102003.25;5030024;28;20053;-58
2024/01/26 01:18:28;;;;;;;14.75;13.35;;;;;;;19.97;38.48;102004.19;5032007;28;20053;-58
2024/01/26 01:20:56;;;;;;;15.25;13.80;;;;;;;19.97;38.38;102004.19;5020265;28;20045;-58
2024/01/26 01:23:23;;;;;;;13.95;12.57;;;;;;;19.97;38.35;102004.19;5033746;28;20045;-58
2024/01/26 01:25:51;;;;;;;13.48;12.18;;;;;;;19.96;38.37;102007.84;5028448;28;20399;-58
2024/01/26 01:28:18;;;;;;;15.15;13.65;;;;;;;19.95;38.26;102008.84;5025794;28;20108;-57
2024/01/26 01:30:46;;;;;;;13.30;12.00;;;;;;;19.95;38.24;102014.22;5030249;28;20049;-58
2024/01/26 01:33:13;;;;;;;13.38;12.07;;;;;;;19.93;38.27;102019.69;5025036;28;20056;-58
2024/01/26 01:35:40;;;;;;;13.63;12.32;;;;;;;19.94;38.39;102017.88;5029941;28;20069;-58
2024/01/26 01:38:08;;;;;;;13.73;12.32;;;;;;;19.92;38.30;102015.28;5031656;28;20052;-58
2024/01/26 01:40:35;;;;;;;13.90;12.57;;;;;;;19.92;38.19;102015.28;5024983;28;20049;-58
2024/01/26 01:43:03;;;;;;;15.10;13.52;;;;;;;19.91;38.25;102013.56;5033711;28;20045;-58
2024/01/26 01:45:30;;;;;;;15.43;13.90;;;;;;;19.91;38.28;102020.75;5027534;28;20045;-58
2024/01/26 01:47:58;;;;;;;13.48;12.20;;;;;;;19.90;38.33;102011.00;5021391;28;20045;-58
2024/01/26 01:50:25;;;;;;;13.25;11.85;;;;;;;19.89;38.31;102015.50;5030666;28;20385;-58
2024/01/26 01:52:55;;;;;;;13.93;12.63;;;;;;;19.90;38.34;102017.22;5035677;28;20041;-58
2024/01/26 01:55:23;;;;;;;14.25;12.85;;;;;;;19.89;38.39;102026.25;5030704;28;20053;-58
2024/01/26 01:57:54;;;;;;;12.15;11.05;;;;;;;19.88;38.31;102021.81;5030682;28;20052;-58
2024/01/26 02:00:22;;;;;;;13.82;12.48;;;;;;;19.88;38.29;102012.91;5020952;28;20108;-58
2024/01/26 02:02:50;;;;;;;14.40;12.98;;;;;;;19.87;38.24;102005.81;5021344;28;20060;-57
2024/01/26 02:05:18;;;;;;;14.13;12.63;;;;;;;19.87;38.14;101998.63;5020720;28;20042;-58
2024/01/26 02:07:49;;;;;;;14.05;12.73;;;;;;;19.87;38.38;102000.44;5021424;28;20056;-58
2024/01/26 02:10:18;;;;;;;13.55;12.13;;;;;;;19.86;38.27;102002.28;5024773;28;20040;-57
2024/01/26 02:12:45;;;;;;;15.23;13.77;;;;;;;19.85;38.20;101999.69;5030613;28;20053;-57
2024/01/26 02:15:13;;;;;;;13.77;12.40;;;;;;;19.85;38.22;102002.38;5027248;28;20061;-58
2024/01/26 02:17:41;;;;;;;13.85;12.35;;;;;;;19.84;38.28;102006.03;5021905;28;20423;-58
2024/01/26 02:20:09;;;;;;;13.57;12.23;;;;;;;19.85;38.18;102010.44;5018935;28;20412;-57
2024/01/26 02:22:38;;;;;;;13.85;12.55;;;;;;;19.84;38.15;102006.03;5019761;28;20045;-58
2024/01/26 02:25:07;;;;;;;13.95;12.48;;;;;;;19.84;38.25;102000.66;5030547;28;20068;-58
2024/01/26 02:27:35;;;;;;;13.65;12.25;;;;;;;19.84;38.27;101996.13;5024432;28;20058;-58
2024/01/26 02:30:04;;;;;;;14.60;13.20;;;;;;;19.84;38.02;102001.50;5023201;28;20057;-57
2024/01/26 02:32:31;;;;;;;13.07;11.77;;;;;;;19.84;38.13;102004.19;5025091;28;20045;-58
2024/01/26 02:34:59;;;;;;;14.13;12.73;;;;;;;19.84;38.09;102003.34;5029923;28;20045;-58
2024/01/26 02:37:26;;;;;;;12.95;11.70;;;;;;;19.83;38.21;102009.69;5024057;28;20492;-58
2024/01/26 02:39:54;;;;;;;13.35;12.05;;;;;;;19.83;38.06;102010.53;5027228;28;20049;-58
2024/01/26 02:42:21;;;;;;;13.35;11.95;;;;;;;19.84;38.28;102003.34;5020100;28;20049;-58
2024/01/26 02:44:49;;;;;;;14.20;12.77;;;;;;;19.83;38.09;101998.94;5020516;28;20042;-58
2024/01/26 02:47:16;;;;;;;13.90;12.52;;;;;;;19.83;38.32;101990.88;5019726;28;20053;-58
2024/01/26 02:49:43;;;;;;;13.73;12.30;;;;;;;19.82;38.23;101989.16;5013768;28;20046;-58
2024/01/26 02:52:11;;;;;;;13.65;12.25;;;;;;;19.82;38.15;101976.59;5024725;28;20053;-58
2024/01/26 02:54:38;;;;;;;12.68;11.40;;;;;;;19.82;38.27;101979.28;5026019;28;20046;-58
2024/01/26 02:57:06;;;;;;;13.18;11.88;;;;;;;19.82;38.20;101981.09;5032598;28;20068;-58
2024/01/26 02:59:33;;;;;;;12.85;11.57;;;;;;;19.81;38.21;101984.72;5023042;28;20042;-58
2024/01/26 03:02:01;;;;;;;13.27;11.95;;;;;;;19.81;38.14;102001.75;5030026;28;20057;-58
2024/01/26 03:04:28;;;;;;;12.63;11.50;;;;;;;19.80;38.27;102000.00;5028031;28;20046;-58
2024/01/26 03:06:56;;;;;;;12.38;11.07;;;;;;;19.81;38.11;101987.41;5023430;28;20045;-58
2024/01/26 03:09:24;;;;;;;12.27;11.15;;;;;;;19.79;38.36;101992.06;5027894;28;20045;-58
2024/01/26 03:11:51;;;;;;;12.63;11.43;;;;;;;19.79;38.20;101997.44;5029499;28;20062;-58
2024/01/26 03:14:19;;;;;;;13.95;12.48;;;;;;;19.79;38.25;102002.81;5028192;28;20483;-58
2024/01/26 03:16:46;;;;;;;12.85;11.65;;;;;;;19.76;38.22;101996.66;5022764;28;20049;-58
2024/01/26 03:19:14;;;;;;;13.27;11.55;;;;;;;19.78;38.32;101995.72;5028928;28;20538;-58
2024/01/26 03:21:45;;;;;;;11.40;10.30;;;;;;;19.76;38.49;101993.97;5029428;28;20050;-58
2024/01/26 03:24:12;;;;;;;13.30;11.90;;;;;;;19.75;38.18;102000.31;5028281;28;20046;-59
2024/01/26 03:26:40;;;;;;;12.35;11.15;;;;;;;19.75;38.40;102000.31;5022756;28;20053;-58
2024/01/26 03:29:07;;;;;;;13.13;11.73;;;;;;;19.75;38.37;102005.69;5021432;28;20073;-59
2024/01/26 03:31:35;;;;;;;12.43;11.23;;;;;;;19.74;38.41;102001.31;5018850;28;20511;-58
2024/01/26 03:34:02;;;;;;;12.35;11.15;;;;;;;19.74;38.42;101997.75;5019199;28;20049;-58
2024/01/26 03:36:30;;;;;;;11.77;10.68;;;;;;;19.73;38.56;101996.91;5020489;28;20054;-58
2024/01/26 03:38:57;;;;;;;12.50;11.30;;;;;;;19.73;38.65;101993.34;5021167;28;20052;-58
2024/01/26 03:41:24;;;;;;;12.27;11.00;;;;;;;19.72;38.45;101996.97;5018829;28;20038;-58
2024/01/26 03:43:52;;;;;;;12.75;11.55;;;;;;;19.70;38.64;101991.72;5019094;28;20056;-58
2024/01/26 03:46:20;;;;;;;12.18;10.98;;;;;;;19.72;38.71;102002.34;5021167;28;20050;-58
2024/01/26 03:48:48;;;;;;;12.40;10.23;;;;;;;19.70;38.55;102005.16;5015907;28;20042;-58
2024/01/26 03:51:16;;;;;;;11.65;10.48;;;;;;;19.69;38.79;101998.06;5013253;28;20068;-58
2024/01/26 03:53:44;;;;;;;12.25;11.05;;;;;;;19.69;38.70;101986.47;5027624;28;20053;-58
2024/01/26 03:56:11;;;;;;;13.90;12.50;;;;;;;19.68;38.61;101993.66;5019988;28;20049;-58
2024/01/26 03:58:39;;;;;;;12.23;11.13;;;;;;;19.68;38.67;101990.97;5031505;28;20524;-58
2024/01/26 04:01:06;;;;;;;12.20;10.90;;;;;;;19.67;38.60;101989.25;5026082;28;20050;-58
2024/01/26 04:03:34;;;;;;;11.43;10.30;;;;;;;19.67;38.60;102005.38;5018147;28;20053;-58
2024/01/26 04:06:03;;;;;;;12.23;11.02;;;;;;;19.67;38.46;102005.38;5020113;28;20550;-58
2024/01/26 04:08:32;;;;;;;13.05;10.93;;;;;;;19.66;38.52;102000.13;5019807;28;20395;-58
2024/01/26 04:10:59;;;;;;;12.00;10.77;;;;;;;19.67;38.49;102008.06;5027379;28;20068;-58
2024/01/26 04:13:27;;;;;;;11.45;10.30;;;;;;;19.66;38.69;102014.41;5018424;28;20050;-58
2024/01/26 04:15:54;;;;;;;12.20;11.00;;;;;;;19.67;38.49;102015.25;5020131;28;20057;-59
2024/01/26 04:18:22;;;;;;;11.38;10.32;;;;;;;19.65;38.54;102010.00;5017108;28;20420;-58
2024/01/26 04:20:51;;;;;;;10.95;9.73;;;;;;;19.67;38.48;102002.69;5023850;28;20048;-58
2024/01/26 04:23:18;;;;;;;11.35;10.13;;;;;;;19.65;38.44;101999.25;5023065;28;20436;-58
2024/01/26 04:25:46;;;;;;;11.93;10.68;;;;;;;19.65;38.65;102001.94;5031795;28;20048;-59
2024/01/26 04:28:13;;;;;;;11.35;10.25;;;;;;;19.64;38.38;102000.19;5018733;28;20053;-58
2024/01/26 04:30:43;;;;;;;11.30;10.15;;;;;;;19.64;38.40;102005.56;5016156;28;20054;-58
2024/01/26 04:33:10;;;;;;;11.23;10.02;;;;;;;19.63;38.60;102019.97;5023320;28;20521;-58
2024/01/26 04:35:38;;;;;;;12.80;10.30;;;;;;;19.63;38.49;102017.28;5028380;28;20049;-58
2024/01/26 04:38:07;;;;;;;12.07;10.88;;;;;;;19.64;38.52;102012.78;5019102;28;20056;-58
2024/01/26 04:40:34;;;;;;;11.20;10.10;;;;;;;19.63;38.54;102013.75;5017591;28;20507;-58
2024/01/26 04:43:02;;;;;;;11.63;10.43;;;;;;;19.62;38.50;102018.25;5018039;28;20052;-58
2024/01/26 04:45:30;;;;;;;10.43;9.50;;;;;;;19.62;38.54;102026.31;5020332;28;20041;-58
2024/01/26 04:47:58;;;;;;;10.90;9.88;;;;;;;19.62;38.50;102031.69;5017883;28;20052;-58
2024/01/26 04:50:25;;;;;;;11.45;10.40;;;;;;;19.62;38.73;102030.84;5012202;28;20038;-59
2024/01/26 04:52:53;;;;;;;10.07;9.07;;;;;;;19.60;38.64;102047.00;5012643;28;20057;-58
2024/01/26 04:55:22;;;;;;;10.30;9.40;;;;;;;19.60;38.57;102057.75;5031203;28;20056;-58
2024/01/26 04:57:49;;;;;;;11.25;10.25;;;;;;;19.60;38.55;102044.31;5020794;28;20407;-58
2024/01/26 05:00:18;;;;;;;11.32;10.27;;;;;;;19.60;38.47;102046.16;5025536;28;20049;-58
2024/01/26 05:02:46;;;;;;;11.57;10.25;;;;;;;19.59;38.63;102047.13;5027733;28;20804;-58
2024/01/26 05:05:14;;;;;;;10.63;9.57;;;;;;;19.59;38.47;102055.19;5020529;28;20050;-58
2024/01/26 05:07:41;;;;;;;10.55;9.55;;;;;;;19.58;38.50;102048.97;5029376;28;20052;-58
2024/01/26 05:10:11;;;;;;;10.10;9.10;;;;;;;19.58;38.56;102040.03;5023577;28;20049;-58
2024/01/26 05:12:38;;;;;;;10.68;9.57;;;;;;;19.59;38.50;102047.13;5028270;28;20056;-58
2024/01/26 05:15:10;;;;;;;10.30;9.32;;;;;;;19.58;38.52;102048.09;5020194;28;20041;-58
2024/01/26 05:17:38;;;;;;;9.77;8.82;;;;;;;19.56;38.51;102053.56;5017017;28;20053;-58
2024/01/26 05:20:06;;;;;;;11.32;10.32;;;;;;;19.57;38.59;102066.03;5030536;28;20046;-59
2024/01/26 05:22:33;;;;;;;11.25;9.65;;;;;;;19.56;38.68;102064.31;5020356;28;20042;-58
2024/01/26 05:25:01;;;;;;;10.48;9.48;;;;;;;19.56;38.65;102064.31;5032227;28;20052;-58
2024/01/26 05:27:29;;;;;;;10.65;9.55;;;;;;;19.55;38.64;102067.97;5016222;28;20050;-58
2024/01/26 05:29:56;;;;;;;10.50;9.02;;;;;;;19.55;38.58;102059.91;5024132;28;20054;-58
2024/01/26 05:32:24;;;;;;;10.65;9.65;;;;;;;19.54;38.80;102068.06;5028270;28;20049;-58
2024/01/26 05:34:51;;;;;;;10.43;9.40;;;;;;;19.55;38.69;102069.78;5020865;28;20048;-58
2024/01/26 05:37:18;;;;;;;10.52;9.63;;;;;;;19.54;38.69;102066.25;5016663;28;20045;-58
2024/01/26 05:39:46;;;;;;;10.25;9.35;;;;;;;19.54;38.57;102068.94;5024363;28;20054;-58
2024/01/26 05:42:13;;;;;;;11.77;10.48;;;;;;;19.54;38.60;102068.94;5028554;28;20045;-59
2024/01/26 05:44:41;;;;;;;11.10;10.10;;;;;;;19.54;38.58;102073.44;5020594;28;20049;-59
2024/01/26 05:47:08;;;;;;;10.52;9.43;;;;;;;19.54;38.48;102076.13;5016270;28;20080;-61
2024/01/26 05:49:36;;;;;;;10.68;9.68;;;;;;;19.54;38.64;102081.50;5011833;28;20054;-59
2024/01/26 05:52:04;;;;;;;10.55;8.88;;;;;;;19.54;38.58;102090.41;5011264;28;20507;-59
2024/01/26 05:54:31;;;;;;;10.73;9.63;;;;;;;19.52;38.49;102103.06;5015929;28;20057;-59
2024/01/26 05:56:59;;;;;;;9.88;8.95;;;;;;;19.53;38.78;102107.50;5027948;28;20057;-59
2024/01/26 05:59:26;;;;;;;10.30;9.30;;;;;;;19.51;38.68;102110.28;5027760;28;20392;-59
2024/01/26 06:01:54;;;;;;;9.55;8.65;;;;;;;19.51;38.86;102112.97;5023191;28;20042;-59
2024/01/26 06:04:21;;;;;;;9.98;8.98;;;;;;;19.51;38.76;102122.84;5020059;28;20484;-59
2024/01/26 06:06:49;;;;;;;9.32;8.35;;;;;;;19.50;38.75;102124.69;5031572;28;20049;-59
2024/01/26 06:09:17;;;;;;;9.85;8.85;;;;;;;19.49;38.66;102138.22;5027511;28;20407;-60
2024/01/26 06:11:46;;;;;;;11.13;10.02;;;;;;;19.49;38.50;102133.69;5022623;28;20050;-58
2024/01/26 06:14:14;;;;;;;10.23;9.23;;;;;;;19.49;38.59;102135.53;5034852;28;20045;-57
2024/01/26 06:16:41;;;;;;;9.25;8.30;;;;;;;19.50;38.52;102131.88;5024264;28;20045;-58
2024/01/26 06:19:09;;;;;;;10.73;9.57;;;;;;;19.49;38.70;102138.22;5033772;28;20056;-57
2024/01/26 06:21:36;;;;;;;10.85;9.10;;;;;;;19.48;38.56;102131.09;5034746;28;20404;-57
2024/01/26 06:24:04;;;;;;;9.32;8.30;;;;;;;19.47;38.80;102132.06;5023207;28;20056;-57
2024/01/26 06:26:31;;;;;;;9.93;9.02;;;;;;;19.46;38.71;102139.28;5030739;28;20472;-57
2024/01/26 06:28:59;;;;;;;10.43;9.32;;;;;;;19.47;38.68;102143.66;5027655;28;20045;-58
2024/01/26 06:31:26;;;;;;;11.50;10.30;;;;;;;19.46;38.62;102152.69;5022581;28;20057;-58
2024/01/26 06:33:54;;;;;;;10.10;9.10;;;;;;;19.45;38.86;102147.44;5031126;28;20049;-58
2024/01/26 06:36:21;;;;;;;10.48;9.38;;;;;;;19.46;38.76;102155.38;5030250;28;20046;-57
2024/01/26 06:38:49;;;;;;;12.18;9.43;;;;;;;19.45;38.93;102164.41;5027866;28;20044;-57
2024/01/26 06:41:16;;;;;;;10.43;9.38;;;;;;;19.46;38.83;102159.91;5022453;28;20045;-57
2024/01/26 06:43:50;;;;;;;10.60;9.20;;;;;;;19.44;38.85;102164.50;5034704;28;20492;-57
2024/01/26 06:46:21;;;;;;;10.82;9.25;;;;;;;19.44;38.77;102164.50;5024598;28;20041;-58
2024/01/26 06:48:49;;;;;;;10.50;9.40;;;;;;;19.43;38.79;102158.25;5025160;28;20049;-59
2024/01/26 06:51:17;;;;;;;10.25;9.25;;;;;;;19.44;38.90;102167.19;5030782;28;20050;-58
2024/01/26 06:53:44;;;;;;;10.07;9.05;;;;;;;19.43;38.86;102158.25;5013931;28;20511;-59
2024/01/26 06:56:12;;;;;;;10.95;9.85;;;;;;;19.43;38.77;102163.63;5023392;28;20049;-59
2024/01/26 06:58:39;;;;;;;11.38;10.13;;;;;;;19.43;38.87;102169.00;5031462;28;20054;-58
2024/01/26 07:01:07;;;;;;;11.57;9.82;;;;;;;19.41;38.87;102152.16;5020487;28;20054;-58
2024/01/26 07:03:34;;;;;;;11.43;10.20;;;;;;;19.41;38.98;102153.97;5020251;28;20061;-58
2024/01/26 07:06:02;;;;;;;10.93;9.68;;;;;;;19.41;38.79;102160.19;5018658;28;20384;-58
2024/01/26 07:08:29;;;;;;;11.18;9.70;;;;;;;19.42;39.02;102155.69;5022898;28;20048;-59
2024/01/26 07:10:57;;;;;;;11.57;10.05;;;;;;;19.42;38.86;102158.38;5025814;28;20053;-60
2024/01/26 07:13:40;;;;;;;11.85;10.50;;;;;;;19.42;39.01;102169.97;5031171;28;20127;-59
2024/01/26 07:16:11;;;;;;;11.38;10.18;;;;;;;19.43;38.99;102176.19;5017449;28;20065;-59
2024/01/26 07:18:38;;;;;;;13.32;10.73;;;;;;;19.41;38.98;102168.25;5017948;28;20042;-57
2024/01/26 07:21:10;;;;;;;10.85;9.75;;;;;;;19.41;38.97;102183.50;5030515;28;20068;-57
2024/01/26 07:23:41;;;;;;;11.77;10.55;;;;;;;19.42;39.14;102190.59;5023335;28;20060;-57
2024/01/26 07:26:08;;;;;;;15.05;11.02;;;;;;;19.42;39.03;102196.84;5023514;28;20412;-59
2024/01/26 07:28:36;;;;;;;12.80;11.48;;;;;;;19.42;38.99;102191.47;5019557;28;20058;-59
2024/01/26 07:31:03;;;;;;;13.02;11.43;;;;;;;19.43;39.08;102187.81;5019707;28;20069;-59
2024/01/26 07:33:31;;;;;;;13.32;10.73;;;;;;;19.45;39.28;102187.72;5017678;28;20053;-59
2024/01/26 07:35:58;;;;;;;13.18;11.60;;;;;;;19.43;39.13;102195.84;5017760;28;20050;-57
2024/01/26 07:38:26;;;;;;;11.40;10.15;;;;;;;19.43;39.08;102195.00;5019057;28;20045;-58
2024/01/26 07:40:54;;;;;;;11.43;10.25;;;;;;;19.42;39.14;102198.66;5020055;28;20056;-56
2024/01/26 07:43:21;;;;;;;11.52;9.95;;;;;;;19.40;39.07;102193.38;5018101;28;20045;-57
2024/01/26 07:45:49;;;;;;;12.40;10.38;;;;;;;19.40;39.03;102196.06;5018280;28;20496;-57
2024/01/26 07:48:16;;;;;;;12.45;11.15;;;;;;;19.39;38.82;102185.41;5019125;28;20530;-59
2024/01/26 07:50:45;;;;;;;12.95;11.00;;;;;;;19.39;38.99;102183.59;5020377;28;20045;-59
2024/01/26 07:53:12;;;;;;;16.05;11.00;;;;;;;19.41;38.88;102186.19;5016785;28;20050;-59
2024/01/26 07:55:42;;;;;;;12.93;10.30;;;;;;;19.40;38.94;102193.38;5017614;28;20052;-58
2024/01/26 07:58:10;;;;;;;13.25;10.75;;;;;;;19.41;39.05;102202.31;5028536;28;20057;-57
2024/01/26 08:00:38;;;;;;;11.60;10.40;;;;;;;19.40;39.15;102195.19;5019761;28;20050;-59
2024/01/26 08:03:05;;;;;;;12.48;10.73;;;;;;;19.42;39.23;102196.84;5020300;28;20041;-59
2024/01/26 08:05:33;;;;;;;12.63;11.13;;;;;;;19.42;39.18;102204.03;5023209;28;20129;-58
2024/01/26 08:08:01;;;;;;;13.38;11.55;;;;;;;19.43;39.29;102214.66;5025321;28;20094;-58
2024/01/26 08:10:28;;;;;;;11.52;9.95;;;;;;;19.42;39.51;102226.38;5023146;28;20057;-58
2024/01/26 08:12:56;;;;;;;11.93;10.45;;;;;;;19.44;39.22;102220.88;5027241;28;20049;-58
2024/01/26 08:15:23;;;;;;;12.25;10.48;;;;;;;19.44;39.33;102243.22;5017365;28;20050;-58
2024/01/26 08:17:51;;;;;;;12.05;10.80;;;;;;;19.44;39.34;102253.13;5019085;28;20053;-58
2024/01/26 08:20:19;;;;;;;11.75;10.43;;;;;;;19.45;39.35;102260.25;5021017;28;20121;-58
2024/01/26 08:22:46;;;;;;;11.40;10.20;;;;;;;19.45;39.48;102263.78;5026836;28;20052;-58
2024/01/26 08:25:14;;;;;;;10.60;9.60;;;;;;;19.46;39.38;102264.66;5027092;28;20053;-58
2024/01/26 08:27:42;;;;;;;12.98;10.38;;;;;;;19.46;39.31;102270.88;5020456;28;20515;-58
2024/01/26 08:30:09;;;;;;;12.70;10.63;;;;;;;19.48;39.20;102268.06;5015407;28;20049;-58
2024/01/26 08:32:37;;;;;;;11.60;9.57;;;;;;;19.48;39.29;102266.25;5026660;28;20109;-58
2024/01/26 08:35:09;;;;;;;11.60;9.25;;;;;;;19.49;39.15;102256.41;5016643;28;20478;-58
2024/01/26 08:37:38;;;;;;;12.63;10.02;;;;;;;19.49;38.90;102253.72;5019596;28;20052;-58
2024/01/26 08:40:06;;;;;;;10.95;9.20;;;;;;;19.49;39.03;102254.56;5017067;28;20049;-60
2024/01/26 08:42:34;;;;;;;11.15;10.05;;;;;;;19.51;39.10;102266.06;5016530;28;20057;-59
2024/01/26 08:45:02;;;;;;;12.15;10.90;;;;;;;19.52;38.94;102257.03;5016663;28;20042;-58
2024/01/26 08:47:30;;;;;;;12.45;10.27;;;;;;;19.50;38.87;102263.50;5019776;28;20534;-58
2024/01/26 08:49:57;;;;;;;10.52;9.35;;;;;;;19.50;38.86;102253.59;5018901;28;20052;-58
2024/01/26 08:52:25;;;;;;;11.48;10.35;;;;;;;19.52;38.67;102253.50;5025401;28;20042;-58
2024/01/26 08:54:52;;;;;;;16.00;14.38;;;;;;;19.51;38.11;102254.47;5028129;28;20050;-58
2024/01/26 08:57:20;;;;;;;19.45;17.60;;;;;;;19.49;37.18;102256.41;5020447;28;20049;-57
2024/01/26 08:59:50;;;;;;;19.13;17.13;;;;;;;19.46;37.06;102259.28;5011714;28;20057;-58
2024/01/26 09:02:17;;;;;;;17.88;16.08;;;;;;;19.45;37.38;102268.28;5016472;28;20050;-57
2024/01/26 09:04:45;;;;;;;15.10;13.60;;;;;;;19.46;37.75;102268.19;5016258;28;20060;-58
2024/01/26 09:07:12;;;;;;;12.90;11.60;;;;;;;19.45;38.06;102270.97;5027808;28;20053;-58
2024/01/26 09:09:40;;;;;;;13.38;11.98;;;;;;;19.46;38.07;102278.06;5028590;28;20054;-58
2024/01/26 09:12:07;;;;;;;12.48;11.18;;;;;;;19.46;37.95;102270.88;5020451;28;20041;-58
2024/01/26 09:14:35;;;;;;;13.65;12.02;;;;;;;19.48;38.15;102266.25;5020775;28;20488;-57
2024/01/26 09:17:02;;;;;;;12.95;11.57;;;;;;;19.49;38.40;102277.88;5019630;28;20056;-58
2024/01/26 09:19:33;;;;;;;12.75;11.45;;;;;;;19.50;38.34;102276.91;5017040;28;20046;-59
2024/01/26 09:22:03;;;;;;;14.02;11.60;;;;;;;19.51;38.24;102267.88;5024494;28;20053;-58
2024/01/26 09:24:30;;;;;;;11.57;10.35;;;;;;;19.51;38.28;102268.75;5027724;28;20052;-58
2024/01/26 09:26:59;;;;;;;15.15;11.48;;;;;;;19.52;38.20;102275.84;5028745;28;20060;-58
2024/01/26 09:29:26;;;;;;;12.88;11.60;;;;;;;19.53;38.35;102276.72;5016329;28;20065;-58
2024/01/26 09:31:57;;;;;;;13.75;11.23;;;;;;;19.54;38.35;102286.50;5016334;28;20050;-58
2024/01/26 09:34:25;;;;;;;12.85;11.43;;;;;;;19.54;38.29;102289.19;5019992;28;20041;-58
2024/01/26 09:36:53;;;;;;;13.30;11.88;;;;;;;19.55;38.36;102295.41;5022556;28;20077;-58
2024/01/26 09:39:24;;;;;;;13.27;11.50;;;;;;;19.55;38.29;102298.97;5020223;28;20484;-58
2024/01/26 09:41:51;;;;;;;11.88;10.65;;;;;;;19.55;38.35;102301.66;5019809;28;20428;-58
2024/01/26 09:44:19;;;;;;;12.20;11.00;;;;;;;19.55;38.42;102312.41;5021241;28;20053;-58
2024/01/26 09:46:46;;;;;;;12.57;11.15;;;;;;;19.56;38.51;102298.00;5022104;28;20046;-58
2024/01/26 09:49:14;;;;;;;13.45;12.05;;;;;;;19.56;38.34;102305.19;5020039;28;20050;-58
2024/01/26 09:51:41;;;;;;;11.25;10.15;;;;;;;19.56;38.52;102305.19;5029452;28;20060;-58
2024/01/26 09:54:11;;;;;;;13.25;11.55;;;;;;;19.54;38.32;102299.06;5023172;28;20053;-58
2024/01/26 09:56:39;;;;;;;12.60;11.38;;;;;;;19.56;38.40;102305.19;5021540;28;20060;-58
2024/01/26 09:59:08;;;;;;;14.02;11.55;;;;;;;19.56;38.70;102308.75;5019950;28;20415;-58
2024/01/26 10:01:36;;;;;;;12.32;11.13;;;;;;;19.56;38.64;102322.16;5019948;28;20061;-58
2024/01/26 10:04:04;;;;;;;12.93;11.60;;;;;;;19.56;38.56;102327.53;5021552;28;20046;-58
2024/01/26 10:06:33;;;;;;;14.90;13.30;;;;;;;19.55;38.64;102320.47;5020888;28;20054;-58
2024/01/26 10:09:03;;;;;;;12.32;11.02;;;;;;;19.55;38.72;102323.13;5019822;28;20045;-58
2024/01/26 10:11:31;;;;;;;12.70;11.50;;;;;;;19.56;38.61;102321.31;5019452;28;20093;-58
2024/01/26 10:13:58;;;;;;;17.00;13.82;;;;;;;19.57;38.71;102317.66;5021040;28;20039;-58
2024/01/26 10:16:26;;;;;;;16.27;14.70;;;;;;;19.55;38.55;102316.91;5031789;28;20128;-58
2024/01/26 10:18:53;;;;;;;16.70;14.90;;;;;;;19.54;38.56;102315.19;5019535;28;20049;-58
2024/01/26 10:21:22;;;;;;;16.42;14.73;;;;;;;19.55;38.60;102315.09;5030009;28;20392;-58
2024/01/26 10:23:50;;;;;;;15.02;13.20;;;;;;;19.55;38.62;102311.53;5022528;28;20045;-58
2024/01/26 10:26:18;;;;;;;14.43;13.02;;;;;;;19.55;38.61;102296.28;5031979;28;20503;-58
2024/01/26 10:28:47;;;;;;;15.73;14.10;;;;;;;19.55;38.66;102298.97;5026514;28;20091;-58
2024/01/26 10:31:14;;;;;;;16.08;14.48;;;;;;;19.54;38.61;102297.25;5024013;28;20110;-58
2024/01/26 10:33:45;;;;;;;16.75;15.10;;;;;;;19.54;38.58;102299.06;5034473;28;20049;-58
2024/01/26 10:36:14;;;;;;;16.67;14.95;;;;;;;19.53;38.58;102292.84;5019314;28;20533;-58
2024/01/26 10:38:43;;;;;;;16.40;14.45;;;;;;;19.54;38.73;102283.81;5033458;28;20050;-58
2024/01/26 10:41:17;;;;;;;14.02;12.50;;;;;;;19.54;38.73;102281.13;5034981;28;20041;-58
2024/01/26 10:43:45;;;;;;;13.40;12.00;;;;;;;19.55;38.77;102285.53;5019382;28;20044;-58
2024/01/26 10:46:14;;;;;;;13.27;11.98;;;;;;;19.55;38.88;102293.59;5028660;28;20464;-58
2024/01/26 10:48:43;;;;;;;14.40;13.00;;;;;;;19.56;38.81;102298.00;5015475;28;20046;-58
2024/01/26 10:51:13;;;;;;;13.35;12.05;;;;;;;19.55;38.87;102290.91;5032156;28;20057;-58
2024/01/26 10:53:45;;;;;;;15.60;13.23;;;;;;;19.56;38.90;102297.13;5022085;28;20048;-58
2024/01/26 10:56:13;;;;;;;12.43;11.13;;;;;;;19.56;38.95;102298.00;5028096;28;20054;-59
2024/01/26 10:58:40;;;;;;;15.57;13.98;;;;;;;19.57;39.04;102307.81;5023576;28;20047;-59
2024/01/26 11:01:08;;;;;;;14.95;13.32;;;;;;;19.57;38.94;102307.81;5019478;28;20053;-57
2024/01/26 11:03:36;;;;;;;13.95;12.50;;;;;;;19.57;38.96;102307.81;5030527;28;20056;-57
2024/01/26 11:06:04;;;;;;;14.98;13.48;;;;;;;19.57;38.84;102301.53;5018184;28;20046;-57
2024/01/26 11:08:32;;;;;;;16.55;14.40;;;;;;;19.56;38.91;102281.88;5018165;28;20049;-58
2024/01/26 11:11:00;;;;;;;15.15;13.45;;;;;;;19.58;39.05;102271.91;5020623;28;20404;-58
2024/01/26 11:13:35;;;;;;;14.13;12.73;;;;;;;19.58;38.88;102258.47;5018847;28;20057;-58
2024/01/26 11:16:06;;;;;;;15.02;13.35;;;;;;;19.56;38.94;102255.00;5017932;28;20057;-60